sensor_id;sensor_type;location;lat;lon;timestamp;pressure;altitude;pressure_sealevel;temperature;humidity
49216;BME280;45943;53.148;8.204;2023-03-22T00:02:25;100925.00;;;12.41;100.00
49216;BME280;45943;53.148;8.204;2023-03-22T00:04:51;100924.50;;;12.57;100.00
49216;BME280;45943;53.148;8.204;2023-03-22T00:07:18;100929.75;;;12.49;100.00
49216;BME280;45943;53.148;8.204;2023-03-22T00:09:44;100922.00;;;12.65;100.00
49216;BME280;45943;53.148;8.204;2023-03-22T00:12:09;100918.41;;;12.55;100.00
49216;BME280;45943;53.148;8.204;2023-03-22T00:14:35;100915.72;;;12.55;100.00
49216;BME280;45943;53.148;8.204;2023-03-22T00:17:01;100908.22;;;12.49;100.00
49216;BME280;45943;53.148;8.204;2023-03-22T00:19:27;100904.88;;;12.35;100.00
49216;BME280;45943;53.148;8.204;2023-03-22T00:21:54;100905.84;;;12.34;100.00
49216;BME280;45943;53.148;8.204;2023-03-22T00:24:20;100899.50;;;12.35;100.00
49216;BME280;45943;53.148;8.204;2023-03-22T00:26:46;100895.56;;;12.40;100.00
49216;BME280;45943;53.148;8.204;2023-03-22T00:29:12;100890.44;;;12.37;100.00
49216;BME280;45943;53.148;8.204;2023-03-22T00:31:38;100896.28;;;12.42;100.00
49216;BME280;45943;53.148;8.204;2023-03-22T00:34:05;100881.50;;;12.36;100.00
49216;BME280;45943;53.148;8.204;2023-03-22T00:36:31;100884.53;;;12.43;100.00
49216;BME280;45943;53.148;8.204;2023-03-22T00:38:57;100882.69;;;12.43;100.00
49216;BME280;45943;53.148;8.204;2023-03-22T00:41:23;100875.31;;;12.45;100.00
49216;BME280;45943;53.148;8.204;2023-03-22T00:43:50;100882.50;;;12.35;100.00
49216;BME280;45943;53.148;8.204;2023-03-22T00:46:17;100883.50;;;12.34;100.00
49216;BME280;45943;53.148;8.204;2023-03-22T00:48:44;100877.50;;;12.51;100.00
49216;BME280;45943;53.148;8.204;2023-03-22T00:51:10;100876.94;;;12.27;100.00
49216;BME280;45943;53.148;8.204;2023-03-22T00:53:38;100880.22;;;12.30;100.00
49216;BME280;45943;53.148;8.204;2023-03-22T00:56:04;100858.38;;;12.24;100.00
49216;BME280;45943;53.148;8.204;2023-03-22T00:58:31;100858.06;;;12.17;100.00
49216;BME280;45943;53.148;8.204;2023-03-22T01:00:57;100859.66;;;12.20;100.00
49216;BME280;45943;53.148;8.204;2023-03-22T01:03:23;100860.59;;;12.40;100.00
49216;BME280;45943;53.148;8.204;2023-03-22T01:05:50;100851.34;;;12.32;100.00
49216;BME280;45943;53.148;8.204;2023-03-22T01:08:20;100843.97;;;12.04;100.00
49216;BME280;45943;53.148;8.204;2023-03-22T01:10:47;100856.44;;;11.84;100.00
49216;BME280;45943;53.148;8.204;2023-03-22T01:13:14;100843.16;;;11.83;100.00
49216;BME280;45943;53.148;8.204;2023-03-22T01:15:40;100842.44;;;11.81;100.00
49216;BME280;45943;53.148;8.204;2023-03-22T01:18:07;100848.25;;;11.86;100.00
49216;BME280;45943;53.148;8.204;2023-03-22T01:20:34;100839.97;;;11.98;100.00
49216;BME280;45943;53.148;8.204;2023-03-22T01:23:00;100843.19;;;12.13;100.00
49216;BME280;45943;53.148;8.204;2023-03-22T01:25:26;100840.63;;;12.12;100.00
49216;BME280;45943;53.148;8.204;2023-03-22T01:27:52;100843.06;;;11.94;100.00
49216;BME280;45943;53.148;8.204;2023-03-22T01:30:18;100841.91;;;12.17;100.00
49216;BME280;45943;53.148;8.204;2023-03-22T01:32:44;100838.47;;;12.05;100.00
49216;BME280;45943;53.148;8.204;2023-03-22T01:35:10;100838.06;;;12.10;100.00
49216;BME280;45943;53.148;8.204;2023-03-22T01:37:36;100834.44;;;12.21;100.00
49216;BME280;45943;53.148;8.204;2023-03-22T01:40:02;100837.28;;;12.29;100.00
49216;BME280;45943;53.148;8.204;2023-03-22T01:42:29;100846.25;;;12.29;100.00
49216;BME280;45943;53.148;8.204;2023-03-22T01:48:03;100827.38;;;12.20;100.00
49216;BME280;45943;53.148;8.204;2023-03-22T01:50:34;100825.25;;;12.23;100.00
49216;BME280;45943;53.148;8.204;2023-03-22T01:53:03;100830.34;;;12.26;100.00
49216;BME280;45943;53.148;8.204;2023-03-22T01:55:32;100819.34;;;12.29;100.00
49216;BME280;45943;53.148;8.204;2023-03-22T01:57:58;100818.22;;;12.32;100.00
49216;BME280;45943;53.148;8.204;2023-03-22T02:00:26;100815.53;;;12.32;100.00
49216;BME280;45943;53.148;8.204;2023-03-22T02:02:52;100819.22;;;12.31;100.00
49216;BME280;45943;53.148;8.204;2023-03-22T02:05:18;100812.16;;;12.40;100.00
49216;BME280;45943;53.148;8.204;2023-03-22T02:07:46;100814.81;;;12.30;100.00
49216;BME280;45943;53.148;8.204;2023-03-22T02:10:23;100813.97;;;12.29;100.00
49216;BME280;45943;53.148;8.204;2023-03-22T02:18:18;100796.03;;;12.40;100.00
49216;BME280;45943;53.148;8.204;2023-03-22T02:23:39;100785.38;;;12.38;100.00
49216;BME280;45943;53.148;8.204;2023-03-22T02:39:50;100783.25;;;12.32;100.00
49216;BME280;45943;53.148;8.204;2023-03-22T02:42:34;100782.38;;;12.22;100.00
49216;BME280;45943;53.148;8.204;2023-03-22T02:48:14;100773.94;;;12.46;100.00
49216;BME280;45943;53.148;8.204;2023-03-22T02:50:51;100774.66;;;12.48;100.00
49216;BME280;45943;53.148;8.204;2023-03-22T02:53:45;100771.41;;;12.44;100.00
49216;BME280;45943;53.148;8.204;2023-03-22T02:56:33;100768.56;;;12.46;100.00
49216;BME280;45943;53.148;8.204;2023-03-22T02:59:05;100773.25;;;12.53;100.00
49216;BME280;45943;53.148;8.204;2023-03-22T03:01:35;100765.50;;;12.60;100.00
49216;BME280;45943;53.148;8.204;2023-03-22T03:04:06;100756.28;;;12.53;100.00
49216;BME280;45943;53.148;8.204;2023-03-22T03:06:38;100766.75;;;12.56;100.00
49216;BME280;45943;53.148;8.204;2023-03-22T03:09:11;100757.25;;;12.52;100.00
49216;BME280;45943;53.148;8.204;2023-03-22T03:11:46;100767.00;;;12.43;100.00
49216;BME280;45943;53.148;8.204;2023-03-22T03:14:33;100763.50;;;12.52;100.00
49216;BME280;45943;53.148;8.204;2023-03-22T03:17:07;100768.88;;;12.52;100.00
49216;BME280;45943;53.148;8.204;2023-03-22T03:20:06;100761.50;;;12.54;100.00
49216;BME280;45943;53.148;8.204;2023-03-22T03:31:42;100755.25;;;12.44;100.00
49216;BME280;45943;53.148;8.204;2023-03-22T03:33:50;100759.31;;;12.39;100.00
49216;BME280;45943;53.148;8.204;2023-03-22T03:36:25;100758.50;;;12.48;100.00
49216;BME280;45943;53.148;8.204;2023-03-22T03:38:54;100752.59;;;12.54;100.00
49216;BME280;45943;53.148;8.204;2023-03-22T03:41:23;100749.91;;;12.54;100.00
49216;BME280;45943;53.148;8.204;2023-03-22T03:43:54;100748.31;;;12.42;100.00
49216;BME280;45943;53.148;8.204;2023-03-22T03:46:22;100744.63;;;12.43;100.00
49216;BME280;45943;53.148;8.204;2023-03-22T03:48:49;100745.28;;;12.25;100.00
49216;BME280;45943;53.148;8.204;2023-03-22T03:51:17;100743.63;;;12.34;100.00
49216;BME280;45943;53.148;8.204;2023-03-22T03:53:44;100744.63;;;12.43;100.00
49216;BME280;45943;53.148;8.204;2023-03-22T03:56:10;100733.59;;;12.46;100.00
49216;BME280;45943;53.148;8.204;2023-03-22T03:58:36;100733.75;;;12.54;100.00
49216;BME280;45943;53.148;8.204;2023-03-22T04:01:02;100743.94;;;12.41;100.00
49216;BME280;45943;53.148;8.204;2023-03-22T04:03:28;100739.22;;;12.33;100.00
49216;BME280;45943;53.148;8.204;2023-03-22T04:05:55;100739.41;;;12.41;100.00
49216;BME280;45943;53.148;8.204;2023-03-22T04:08:21;100740.38;;;12.40;100.00
49216;BME280;45943;53.148;8.204;2023-03-22T04:10:48;100733.00;;;12.32;100.00
49216;BME280;45943;53.148;8.204;2023-03-22T04:13:17;100732.13;;;12.22;100.00
49216;BME280;45943;53.148;8.204;2023-03-22T04:15:46;100731.84;;;12.25;100.00
49216;BME280;45943;53.148;8.204;2023-03-22T04:18:16;100735.66;;;12.23;100.00
49216;BME280;45943;53.148;8.204;2023-03-22T04:20:44;100732.81;;;12.24;100.00
49216;BME280;45943;53.148;8.204;2023-03-22T04:23:10;100735.94;;;12.20;100.00
49216;BME280;45943;53.148;8.204;2023-03-22T04:25:36;100733.69;;;12.25;100.00
49216;BME280;45943;53.148;8.204;2023-03-22T04:28:03;100718.69;;;12.22;100.00
49216;BME280;45943;53.148;8.204;2023-03-22T04:30:29;100726.78;;;12.32;100.00
49216;BME280;45943;53.148;8.204;2023-03-22T04:33:01;100721.75;;;12.18;100.00
49216;BME280;45943;53.148;8.204;2023-03-22T04:35:32;100713.47;;;12.30;100.00
49216;BME280;45943;53.148;8.204;2023-03-22T04:37:59;100716.00;;;12.32;100.00
49216;BME280;45943;53.148;8.204;2023-03-22T04:40:26;100715.59;;;12.37;100.00
49216;BME280;45943;53.148;8.204;2023-03-22T04:42:56;100722.81;;;12.36;100.00
49216;BME280;45943;53.148;8.204;2023-03-22T04:45:23;100717.16;;;12.29;100.00
49216;BME280;45943;53.148;8.204;2023-03-22T04:47:53;100716.69;;;12.24;100.00
49216;BME280;45943;53.148;8.204;2023-03-22T04:50:19;100709.72;;;12.12;100.00
49216;BME280;45943;53.148;8.204;2023-03-22T04:52:45;100706.59;;;12.07;100.00
49216;BME280;45943;53.148;8.204;2023-03-22T04:55:12;100709.16;;;12.18;100.00
49216;BME280;45943;53.148;8.204;2023-03-22T04:57:38;100710.38;;;11.95;100.00
49216;BME280;45943;53.148;8.204;2023-03-22T05:00:04;100708.31;;;12.18;100.00
49216;BME280;45943;53.148;8.204;2023-03-22T05:02:33;100700.66;;;12.13;100.00
49216;BME280;45943;53.148;8.204;2023-03-22T05:04:59;100695.13;;;12.05;100.00
49216;BME280;45943;53.148;8.204;2023-03-22T05:07:25;100696.81;;;12.06;100.00
49216;BME280;45943;53.148;8.204;2023-03-22T05:09:51;100687.63;;;12.09;100.00
49216;BME280;45943;53.148;8.204;2023-03-22T05:12:17;100690.38;;;11.88;100.00
49216;BME280;45943;53.148;8.204;2023-03-22T05:14:43;100692.53;;;11.94;100.00
49216;BME280;45943;53.148;8.204;2023-03-22T05:17:09;100690.53;;;11.86;100.00
49216;BME280;45943;53.148;8.204;2023-03-22T05:19:35;100687.44;;;11.91;100.00
49216;BME280;45943;53.148;8.204;2023-03-22T05:22:01;100686.31;;;11.93;100.00
49216;BME280;45943;53.148;8.204;2023-03-22T05:24:28;100681.31;;;11.89;100.00
49216;BME280;45943;53.148;8.204;2023-03-22T05:26:55;100678.63;;;11.89;100.00
49216;BME280;45943;53.148;8.204;2023-03-22T05:29:26;100674.59;;;11.73;100.00
49216;BME280;45943;53.148;8.204;2023-03-22T05:31:53;100667.88;;;11.89;100.00
49216;BME280;45943;53.148;8.204;2023-03-22T05:34:18;100666.47;;;11.85;100.00
49216;BME280;45943;53.148;8.204;2023-03-22T05:36:45;100667.03;;;11.88;100.00
49216;BME280;45943;53.148;8.204;2023-03-22T05:39:11;100666.53;;;11.73;100.00
49216;BME280;45943;53.148;8.204;2023-03-22T05:41:39;100667.22;;;11.96;100.00
49216;BME280;45943;53.148;8.204;2023-03-22T05:44:05;100666.94;;;11.90;100.00
49216;BME280;45943;53.148;8.204;2023-03-22T05:46:31;100671.78;;;11.75;100.00
49216;BME280;45943;53.148;8.204;2023-03-22T05:48:57;100661.56;;;11.90;100.00
49216;BME280;45943;53.148;8.204;2023-03-22T05:51:23;100652.06;;;11.95;100.00
49216;BME280;45943;53.148;8.204;2023-03-22T05:53:50;100652.22;;;11.94;100.00
49216;BME280;45943;53.148;8.204;2023-03-22T05:56:17;100654.25;;;12.11;100.00
49216;BME280;45943;53.148;8.204;2023-03-22T05:58:46;100656.50;;;12.06;100.00
49216;BME280;45943;53.148;8.204;2023-03-22T06:01:12;100646.88;;;12.03;100.00
49216;BME280;45943;53.148;8.204;2023-03-22T06:03:41;100648.59;;;12.14;100.00
49216;BME280;45943;53.148;8.204;2023-03-22T06:06:08;100637.53;;;12.17;100.00
49216;BME280;45943;53.148;8.204;2023-03-22T06:08:35;100646.91;;;12.13;100.00
49216;BME280;45943;53.148;8.204;2023-03-22T06:11:03;100639.97;;;12.11;100.00
49216;BME280;45943;53.148;8.204;2023-03-22T06:13:29;100639.84;;;12.22;100.00
49216;BME280;45943;53.148;8.204;2023-03-22T06:15:57;100648.06;;;12.20;100.00
49216;BME280;45943;53.148;8.204;2023-03-22T06:18:24;100643.53;;;12.40;100.00
49216;BME280;45943;53.148;8.204;2023-03-22T06:20:50;100645.63;;;12.17;100.00
49216;BME280;45943;53.148;8.204;2023-03-22T06:23:16;100643.09;;;12.25;100.00
49216;BME280;45943;53.148;8.204;2023-03-22T06:25:42;100646.22;;;12.30;100.00
49216;BME280;45943;53.148;8.204;2023-03-22T06:28:09;100644.81;;;12.36;100.00
49216;BME280;45943;53.148;8.204;2023-03-22T06:30:35;100646.47;;;12.27;100.00
49216;BME280;45943;53.148;8.204;2023-03-22T06:33:01;100643.53;;;12.30;100.00
49216;BME280;45943;53.148;8.204;2023-03-22T06:35:30;100651.00;;;12.27;100.00
49216;BME280;45943;53.148;8.204;2023-03-22T06:37:57;100634.03;;;12.36;100.00
49216;BME280;45943;53.148;8.204;2023-03-22T06:40:23;100631.22;;;12.38;100.00
49216;BME280;45943;53.148;8.204;2023-03-22T06:42:49;100630.06;;;12.21;100.00
49216;BME280;45943;53.148;8.204;2023-03-22T06:45:15;100628.81;;;12.44;100.00
49216;BME280;45943;53.148;8.204;2023-03-22T06:47:42;100624.72;;;12.50;100.00
49216;BME280;45943;53.148;8.204;2023-03-22T06:50:09;100630.09;;;12.50;100.00
49216;BME280;45943;53.148;8.204;2023-03-22T06:52:35;100637.72;;;12.45;100.00
49216;BME280;45943;53.148;8.204;2023-03-22T06:55:01;100638.56;;;12.45;100.00
49216;BME280;45943;53.148;8.204;2023-03-22T06:57:28;100637.31;;;12.59;100.00
49216;BME280;45943;53.148;8.204;2023-03-22T06:59:54;100636.03;;;12.53;100.00
49216;BME280;45943;53.148;8.204;2023-03-22T07:02:20;100635.47;;;12.50;100.00
49216;BME280;45943;53.148;8.204;2023-03-22T07:04:46;100631.09;;;12.49;100.00
49216;BME280;45943;53.148;8.204;2023-03-22T07:07:12;100627.25;;;12.51;100.00
49216;BME280;45943;53.148;8.204;2023-03-22T07:09:38;100625.97;;;12.36;100.00
49216;BME280;45943;53.148;8.204;2023-03-22T07:12:04;100623.00;;;12.58;100.00
49216;BME280;45943;53.148;8.204;2023-03-22T07:14:34;100622.16;;;12.48;100.00
49216;BME280;45943;53.148;8.204;2023-03-22T07:17:00;100622.03;;;12.50;100.00
49216;BME280;45943;53.148;8.204;2023-03-22T07:19:26;100617.34;;;12.52;100.00
49216;BME280;45943;53.148;8.204;2023-03-22T07:21:52;100617.34;;;12.61;100.00
49216;BME280;45943;53.148;8.204;2023-03-22T07:24:18;100604.72;;;12.81;100.00
49216;BME280;45943;53.148;8.204;2023-03-22T07:26:44;100624.13;;;12.66;100.00
49216;BME280;45943;53.148;8.204;2023-03-22T07:29:11;100605.44;;;12.74;100.00
49216;BME280;45943;53.148;8.204;2023-03-22T07:31:37;100604.44;;;12.65;100.00
49216;BME280;45943;53.148;8.204;2023-03-22T07:34:04;100620.44;;;12.67;100.00
49216;BME280;45943;53.148;8.204;2023-03-22T07:36:33;100603.72;;;12.82;100.00
49216;BME280;45943;53.148;8.204;2023-03-22T07:38:59;100602.88;;;12.82;100.00
49216;BME280;45943;53.148;8.204;2023-03-22T07:41:25;100599.47;;;12.89;100.00
49216;BME280;45943;53.148;8.204;2023-03-22T07:43:54;100608.63;;;13.06;100.00
49216;BME280;45943;53.148;8.204;2023-03-22T07:46:20;100606.97;;;12.96;100.00
49216;BME280;45943;53.148;8.204;2023-03-22T07:48:46;100599.47;;;12.99;100.00
49216;BME280;45943;53.148;8.204;2023-03-22T07:51:15;100584.25;;;13.17;100.00
49216;BME280;45943;53.148;8.204;2023-03-22T07:53:41;100580.72;;;13.07;100.00
49216;BME280;45943;53.148;8.204;2023-03-22T07:56:07;100574.31;;;13.18;100.00
49216;BME280;45943;53.148;8.204;2023-03-22T07:58:33;100588.75;;;13.17;100.00
49216;BME280;45943;53.148;8.204;2023-03-22T08:01:04;100576.09;;;13.37;100.00
49216;BME280;45943;53.148;8.204;2023-03-22T08:03:34;100574.41;;;13.36;100.00
49216;BME280;45943;53.148;8.204;2023-03-22T08:06:01;100577.53;;;13.41;100.00
49216;BME280;45943;53.148;8.204;2023-03-22T08:08:31;100575.47;;;13.53;100.00
49216;BME280;45943;53.148;8.204;2023-03-22T08:10:58;100572.78;;;13.53;100.00
49216;BME280;45943;53.148;8.204;2023-03-22T08:13:24;100568.72;;;13.48;100.00
49216;BME280;45943;53.148;8.204;2023-03-22T08:15:51;100573.41;;;13.37;100.00
49216;BME280;45943;53.148;8.204;2023-03-22T08:18:17;100569.94;;;13.54;100.00
49216;BME280;45943;53.148;8.204;2023-03-22T08:20:43;100569.34;;;13.60;100.00
49216;BME280;45943;53.148;8.204;2023-03-22T08:23:10;100583.88;;;13.49;100.00
49216;BME280;45943;53.148;8.204;2023-03-22T08:25:41;100573.19;;;13.30;100.00
49216;BME280;45943;53.148;8.204;2023-03-22T08:28:08;100565.47;;;13.35;100.00
49216;BME280;45943;53.148;8.204;2023-03-22T08:30:35;100568.41;;;13.52;100.00
49216;BME280;45943;53.148;8.204;2023-03-22T08:33:01;100569.75;;;13.65;100.00
49216;BME280;45943;53.148;8.204;2023-03-22T08:35:27;100572.25;;;13.76;100.00
49216;BME280;45943;53.148;8.204;2023-03-22T08:37:56;100573.44;;;13.64;100.00
49216;BME280;45943;53.148;8.204;2023-03-22T08:40:22;100574.78;;;13.51;100.00
49216;BME280;45943;53.148;8.204;2023-03-22T08:42:48;100571.00;;;13.71;100.00
49216;BME280;45943;53.148;8.204;2023-03-22T08:45:15;100573.47;;;13.82;100.00
49216;BME280;45943;53.148;8.204;2023-03-22T08:47:41;100567.31;;;13.72;100.00
49216;BME280;45943;53.148;8.204;2023-03-22T08:50:08;100577.63;;;13.49;100.00
49216;BME280;45943;53.148;8.204;2023-03-22T08:52:36;100577.38;;;13.42;100.00
49216;BME280;45943;53.148;8.204;2023-03-22T08:55:02;100576.38;;;13.71;100.00
49216;BME280;45943;53.148;8.204;2023-03-22T08:57:29;100577.09;;;13.73;100.00
49216;BME280;45943;53.148;8.204;2023-03-22T08:59:56;100560.13;;;13.63;100.00
49216;BME280;45943;53.148;8.204;2023-03-22T09:02:22;100568.09;;;13.55;100.00
49216;BME280;45943;53.148;8.204;2023-03-22T09:04:49;100562.81;;;13.63;100.00
49216;BME280;45943;53.148;8.204;2023-03-22T09:07:15;100566.03;;;13.66;100.00
49216;BME280;45943;53.148;8.204;2023-03-22T09:09:45;100554.81;;;13.71;100.00
49216;BME280;45943;53.148;8.204;2023-03-22T09:12:11;100547.69;;;13.80;100.00
49216;BME280;45943;53.148;8.204;2023-03-22T09:14:37;100546.94;;;13.87;100.00
49216;BME280;45943;53.148;8.204;2023-03-22T09:17:03;100551.91;;;13.55;100.00
49216;BME280;45943;53.148;8.204;2023-03-22T09:19:30;100550.50;;;13.60;100.00
49216;BME280;45943;53.148;8.204;2023-03-22T09:21:56;100549.22;;;13.82;100.00
49216;BME280;45943;53.148;8.204;2023-03-22T09:24:22;100552.59;;;13.84;100.00
49216;BME280;45943;53.148;8.204;2023-03-22T09:26:48;100550.09;;;14.00;100.00
49216;BME280;45943;53.148;8.204;2023-03-22T09:29:15;100556.34;;;14.01;100.00
49216;BME280;45943;53.148;8.204;2023-03-22T09:31:41;100557.28;;;14.10;100.00
49216;BME280;45943;53.148;8.204;2023-03-22T09:34:06;100566.66;;;14.05;100.00
49216;BME280;45943;53.148;8.204;2023-03-22T09:36:32;100561.66;;;14.11;100.00
49216;BME280;45943;53.148;8.204;2023-03-22T09:38:59;100553.72;;;14.09;100.00
49216;BME280;45943;53.148;8.204;2023-03-22T09:44:01;100560.13;;;14.08;100.00
49216;BME280;45943;53.148;8.204;2023-03-22T09:46:34;100558.03;;;14.20;100.00
49216;BME280;45943;53.148;8.204;2023-03-22T09:49:09;100562.19;;;14.14;100.00
49216;BME280;45943;53.148;8.204;2023-03-22T09:51:48;100549.69;;;13.77;100.00
49216;BME280;45943;53.148;8.204;2023-03-22T09:54:20;100553.78;;;13.99;100.00
49216;BME280;45943;53.148;8.204;2023-03-22T09:59:38;100542.88;;;14.37;100.00
49216;BME280;45943;53.148;8.204;2023-03-22T10:05:15;100558.34;;;14.34;100.00
49216;BME280;45943;53.148;8.204;2023-03-22T10:07:59;100553.81;;;14.53;100.00
49216;BME280;45943;53.148;8.204;2023-03-22T10:10:35;100546.88;;;14.50;100.00
49216;BME280;45943;53.148;8.204;2023-03-22T10:13:16;100537.78;;;14.51;100.00
49216;BME280;45943;53.148;8.204;2023-03-22T10:15:50;100553.28;;;14.67;100.00
49216;BME280;45943;53.148;8.204;2023-03-22T10:18:24;100550.25;;;14.70;100.00
49216;BME280;45943;53.148;8.204;2023-03-22T10:23:33;100552.50;;;14.57;100.00
49216;BME280;45943;53.148;8.204;2023-03-22T10:26:04;100527.81;;;14.70;100.00
49216;BME280;45943;53.148;8.204;2023-03-22T10:28:39;100528.06;;;14.84;100.00
49216;BME280;45943;53.148;8.204;2023-03-22T10:31:17;100523.97;;;14.54;100.00
49216;BME280;45943;53.148;8.204;2023-03-22T10:33:54;100519.88;;;14.15;100.00
49216;BME280;45943;53.148;8.204;2023-03-22T10:36:26;100523.66;;;14.57;100.00
49216;BME280;45943;53.148;8.204;2023-03-22T10:38:57;100519.72;;;14.52;100.00
49216;BME280;45943;53.148;8.204;2023-03-22T10:41:28;100528.38;;;14.20;100.00
49216;BME280;45943;53.148;8.204;2023-03-22T10:43:58;100520.38;;;14.46;100.00
49216;BME280;45943;53.148;8.204;2023-03-22T10:46:28;100522.41;;;14.70;100.00
49216;BME280;45943;53.148;8.204;2023-03-22T10:49:00;100517.25;;;14.84;100.00
49216;BME280;45943;53.148;8.204;2023-03-22T10:51:39;100531.22;;;14.54;100.00
49216;BME280;45943;53.148;8.204;2023-03-22T10:54:13;100525.47;;;15.01;100.00
49216;BME280;45943;53.148;8.204;2023-03-22T10:56:40;100513.03;;;15.08;100.00
49216;BME280;45943;53.148;8.204;2023-03-22T10:59:06;100521.72;;;15.28;100.00
49216;BME280;45943;53.148;8.204;2023-03-22T11:01:34;100510.00;;;15.45;100.00
49216;BME280;45943;53.148;8.204;2023-03-22T11:04:07;100541.66;;;15.27;100.00
49216;BME280;45943;53.148;8.204;2023-03-22T11:06:47;100550.13;;;15.32;100.00
49216;BME280;45943;53.148;8.204;2023-03-22T11:09:16;100522.41;;;14.96;100.00
49216;BME280;45943;53.148;8.204;2023-03-22T11:14:16;100533.34;;;14.94;100.00
49216;BME280;45943;53.148;8.204;2023-03-22T11:16:52;100545.97;;;14.85;100.00
49216;BME280;45943;53.148;8.204;2023-03-22T11:19:26;100539.47;;;14.96;100.00
49216;BME280;45943;53.148;8.204;2023-03-22T11:21:53;100538.50;;;15.05;100.00
49216;BME280;45943;53.148;8.204;2023-03-22T11:24:23;100542.06;;;15.06;100.00
49216;BME280;45943;53.148;8.204;2023-03-22T11:27:01;100538.41;;;14.89;100.00
49216;BME280;45943;53.148;8.204;2023-03-22T11:29:56;100533.50;;;14.92;100.00
49216;BME280;45943;53.148;8.204;2023-03-22T11:32:34;100537.88;;;14.85;100.00
49216;BME280;45943;53.148;8.204;2023-03-22T11:35:10;100541.25;;;14.87;100.00
49216;BME280;45943;53.148;8.204;2023-03-22T11:37:49;100535.75;;;14.53;100.00
49216;BME280;45943;53.148;8.204;2023-03-22T11:40:19;100554.41;;;14.64;100.00
49216;BME280;45943;53.148;8.204;2023-03-22T11:42:46;100551.47;;;14.76;100.00
49216;BME280;45943;53.148;8.204;2023-03-22T11:45:42;100551.75;;;14.47;100.00
49216;BME280;45943;53.148;8.204;2023-03-22T11:48:14;100543.66;;;14.47;100.00
49216;BME280;45943;53.148;8.204;2023-03-22T11:50:43;100548.13;;;14.56;100.00
49216;BME280;45943;53.148;8.204;2023-03-22T11:53:12;100543.66;;;14.47;100.00
49216;BME280;45943;53.148;8.204;2023-03-22T11:55:41;100540.63;;;14.50;100.00
49216;BME280;45943;53.148;8.204;2023-03-22T11:58:18;100548.63;;;14.42;100.00
49216;BME280;45943;53.148;8.204;2023-03-22T12:00:51;100553.75;;;14.27;100.00
49216;BME280;45943;53.148;8.204;2023-03-22T12:03:20;100548.53;;;14.16;100.00
49216;BME280;45943;53.148;8.204;2023-03-22T12:05:50;100546.09;;;14.22;100.00
49216;BME280;45943;53.148;8.204;2023-03-22T12:08:24;100550.13;;;14.18;100.00
49216;BME280;45943;53.148;8.204;2023-03-22T12:11:10;100562.44;;;14.21;100.00
49216;BME280;45943;53.148;8.204;2023-03-22T12:16:34;100551.66;;;14.21;100.00
49216;BME280;45943;53.148;8.204;2023-03-22T12:19:23;100553.94;;;14.16;100.00
49216;BME280;45943;53.148;8.204;2023-03-22T12:22:00;100551.81;;;14.19;100.00
49216;BME280;45943;53.148;8.204;2023-03-22T12:24:28;100549.34;;;14.08;100.00
49216;BME280;45943;53.148;8.204;2023-03-22T12:27:17;100553.38;;;13.94;100.00
49216;BME280;45943;53.148;8.204;2023-03-22T12:29:58;100547.72;;;13.97;100.00
49216;BME280;45943;53.148;8.204;2023-03-22T12:32:29;100545.78;;;14.07;100.00
49216;BME280;45943;53.148;8.204;2023-03-22T12:35:00;100531.13;;;13.92;100.00
49216;BME280;45943;53.148;8.204;2023-03-22T12:37:31;100529.44;;;13.91;100.00
49216;BME280;45943;53.148;8.204;2023-03-22T12:45:36;100509.09;;;14.15;100.00
49216;BME280;45943;53.148;8.204;2023-03-22T12:48:20;100520.19;;;14.12;100.00
49216;BME280;45943;53.148;8.204;2023-03-22T12:50:59;100516.09;;;13.90;100.00
49216;BME280;45943;53.148;8.204;2023-03-22T12:53:31;100521.81;;;14.22;100.00
49216;BME280;45943;53.148;8.204;2023-03-22T12:56:00;100520.09;;;14.39;100.00
49216;BME280;45943;53.148;8.204;2023-03-22T12:58:27;100519.63;;;14.44;100.00
49216;BME280;45943;53.148;8.204;2023-03-22T13:03:59;100519.66;;;14.26;100.00
49216;BME280;45943;53.148;8.204;2023-03-22T13:09:45;100532.34;;;14.33;100.00
49216;BME280;45943;53.148;8.204;2023-03-22T13:17:14;100542.03;;;14.18;100.00
49216;BME280;45943;53.148;8.204;2023-03-22T13:30:24;100553.25;;;14.14;100.00
49216;BME280;45943;53.148;8.204;2023-03-22T13:33:12;100549.34;;;14.26;100.00
49216;BME280;45943;53.148;8.204;2023-03-22T13:35:48;100561.91;;;14.17;100.00
49216;BME280;45943;53.148;8.204;2023-03-22T13:43:32;100563.69;;;13.81;100.00
49216;BME280;45943;53.148;8.204;2023-03-22T13:46:05;100563.97;;;13.88;100.00
49216;BME280;45943;53.148;8.204;2023-03-22T13:53:42;100558.09;;;13.92;100.00
49216;BME280;45943;53.148;8.204;2023-03-22T14:01:44;100563.34;;;13.66;100.00
49216;BME280;45943;53.148;8.204;2023-03-22T14:07:18;100569.78;;;13.56;100.00
49216;BME280;45943;53.148;8.204;2023-03-22T14:09:49;100565.66;;;13.61;100.00
49216;BME280;45943;53.148;8.204;2023-03-22T14:12:24;100561.66;;;13.65;100.00
49216;BME280;45943;53.148;8.204;2023-03-22T14:14:59;100564.81;;;13.61;100.00
49216;BME280;45943;53.148;8.204;2023-03-22T14:20:13;100564.97;;;13.59;100.00
49216;BME280;45943;53.148;8.204;2023-03-22T14:22:46;100561.53;;;13.67;100.00
49216;BME280;45943;53.148;8.204;2023-03-22T14:25:23;100560.47;;;13.77;100.00
49216;BME280;45943;53.148;8.204;2023-03-22T14:27:52;100560.47;;;13.77;100.00
49216;BME280;45943;53.148;8.204;2023-03-22T14:32:57;100571.38;;;13.76;100.00
49216;BME280;45943;53.148;8.204;2023-03-22T14:35:36;100568.34;;;13.61;100.00
49216;BME280;45943;53.148;8.204;2023-03-22T14:38:08;100562.44;;;13.58;100.00